createdAt,value
2022-12-08T00:01:22.616Z,1.10
2022-12-08T00:03:50.995Z,1.10
2022-12-08T00:06:48.458Z,1.10
2022-12-08T00:09:24.948Z,1.10
2022-12-08T00:12:11.565Z,1.10
2022-12-08T00:14:41.788Z,1.10
2022-12-08T00:17:10.922Z,1.10
2022-12-08T00:19:39.536Z,1.10
2022-12-08T00:22:07.261Z,1.10
2022-12-08T00:24:36.235Z,1.10
2022-12-08T00:27:03.192Z,1.10
2022-12-08T00:29:30.233Z,1.10
2022-12-08T00:31:57.250Z,1.10
2022-12-08T00:34:24.466Z,1.10
2022-12-08T00:36:51.387Z,1.10
2022-12-08T00:39:18.696Z,1.10
2022-12-08T00:42:04.381Z,1.10
2022-12-08T00:44:31.231Z,1.10
2022-12-08T00:46:58.218Z,1.10
2022-12-08T00:49:25.200Z,1.10
2022-12-08T00:51:52.409Z,1.10
2022-12-08T00:54:19.500Z,1.10
2022-12-08T00:56:46.708Z,1.10
2022-12-08T00:59:13.586Z,1.10
2022-12-08T01:01:40.596Z,1.10
2022-12-08T01:04:10.659Z,1.20
2022-12-08T01:06:38.580Z,1.10
2022-12-08T01:09:07.069Z,1.10
2022-12-08T01:11:34.481Z,1.10
2022-12-08T01:14:01.707Z,1.10
2022-12-08T01:16:31.112Z,1.10
2022-12-08T01:18:59.674Z,1.10
2022-12-08T01:21:27.008Z,1.10
2022-12-08T01:23:54.675Z,1.10
2022-12-08T01:26:22.226Z,1.10
2022-12-08T01:28:49.298Z,1.00
2022-12-08T01:31:19.595Z,1.00
2022-12-08T01:33:47.464Z,1.00
2022-12-08T01:36:30.290Z,1.00
2022-12-08T01:38:59.708Z,1.10
2022-12-08T01:41:29.748Z,1.00
2022-12-08T01:44:24.794Z,1.10
2022-12-08T01:46:54.306Z,1.10
2022-12-08T01:49:35.077Z,1.10
2022-12-08T01:52:01.943Z,1.10
2022-12-08T01:54:34.113Z,1.10
2022-12-08T01:57:40.496Z,1.00
2022-12-08T02:00:14.317Z,1.10
2022-12-08T02:02:53.220Z,1.00
2022-12-08T02:05:24.735Z,1.10
2022-12-08T02:07:53.256Z,1.00
2022-12-08T02:10:22.908Z,1.00
2022-12-08T02:12:52.955Z,1.00
2022-12-08T02:15:23.058Z,1.00
2022-12-08T02:18:16.251Z,1.00
2022-12-08T02:21:18.257Z,1.00
2022-12-08T02:24:00.109Z,1.00
2022-12-08T02:26:39.491Z,1.00
2022-12-08T02:29:29.440Z,1.00
2022-12-08T02:32:11.894Z,1.00
2022-12-08T02:34:38.774Z,1.00
2022-12-08T02:37:26.510Z,1.00
2022-12-08T02:40:12.004Z,0.90
2022-12-08T02:42:57.704Z,1.00
2022-12-08T02:45:47.418Z,0.90
2022-12-08T02:48:15.419Z,1.00
2022-12-08T02:50:42.863Z,0.90
2022-12-08T02:55:54.329Z,0.90
2022-12-08T02:58:36.327Z,0.90
2022-12-08T03:01:21.213Z,0.90
2022-12-08T03:04:08.635Z,0.90
2022-12-08T03:06:40.033Z,0.90
2022-12-08T03:09:15.769Z,0.90
2022-12-08T03:11:50.686Z,0.90
2022-12-08T03:14:18.191Z,0.90
2022-12-08T03:16:51.355Z,0.90
2022-12-08T03:19:24.065Z,0.90
2022-12-08T03:22:03.527Z,0.90
2022-12-08T03:24:37.897Z,1.00
2022-12-08T03:27:09.931Z,1.00
2022-12-08T03:29:37.041Z,0.90
2022-12-08T03:32:40.133Z,0.90
2022-12-08T03:35:12.506Z,0.90
2022-12-08T03:37:41.165Z,1.00
2022-12-08T03:40:10.814Z,1.00
2022-12-08T03:42:37.845Z,0.90
2022-12-08T03:45:05.586Z,0.90
2022-12-08T03:47:32.644Z,0.90
2022-12-08T03:49:59.556Z,1.00
2022-12-08T03:52:26.429Z,0.90
2022-12-08T03:54:53.392Z,0.90
2022-12-08T03:57:20.291Z,1.00
2022-12-08T03:59:47.203Z,1.00
2022-12-08T04:02:14.184Z,1.00
2022-12-08T04:04:40.999Z,1.00
2022-12-08T04:07:07.998Z,1.00
2022-12-08T04:09:34.936Z,1.00
2022-12-08T04:12:01.814Z,1.00
2022-12-08T04:14:28.807Z,1.10
2022-12-08T04:16:56.026Z,1.00
2022-12-08T04:19:23.045Z,1.10
2022-12-08T04:21:50.009Z,1.00
2022-12-08T04:24:16.927Z,1.00
2022-12-08T04:26:43.868Z,1.00
2022-12-08T04:29:10.728Z,1.00
2022-12-08T04:31:37.940Z,1.00
2022-12-08T04:34:05.119Z,1.10
2022-12-08T04:36:33.241Z,1.00
2022-12-08T04:39:03.437Z,1.00
2022-12-08T04:41:30.582Z,1.00
2022-12-08T04:43:58.593Z,1.00
2022-12-08T04:46:26.739Z,1.00
2022-12-08T04:48:54.064Z,1.00
2022-12-08T04:51:23.945Z,1.00
2022-12-08T04:53:58.923Z,1.00
2022-12-08T04:56:26.614Z,1.00
2022-12-08T04:58:54.137Z,1.00
2022-12-08T05:01:21.833Z,1.00
2022-12-08T05:03:50.560Z,1.00
2022-12-08T05:06:18.425Z,1.00
2022-12-08T05:08:45.977Z,1.10
2022-12-08T05:11:15.104Z,1.00
2022-12-08T05:13:42.508Z,1.10
2022-12-08T05:16:15.416Z,1.00
2022-12-08T05:18:44.188Z,1.00
2022-12-08T05:21:13.245Z,1.00
2022-12-08T05:23:45.126Z,1.10
2022-12-08T05:26:14.664Z,1.00
2022-12-08T05:28:48.577Z,1.10
2022-12-08T05:31:19.439Z,1.10
2022-12-08T05:34:02.426Z,1.10
2022-12-08T05:36:30.957Z,1.10
2022-12-08T05:39:01.840Z,1.00
2022-12-08T05:41:30.979Z,1.00
2022-12-08T05:44:03.743Z,0.90
2022-12-08T05:46:52.514Z,1.00
2022-12-08T05:52:41.066Z,0.90
2022-12-08T06:04:53.671Z,0.80
2022-12-08T06:17:29.714Z,0.80
2022-12-08T06:19:34.857Z,0.80
2022-12-08T06:22:39.712Z,0.70
2022-12-08T06:25:28.722Z,0.70
2022-12-08T06:28:33.166Z,0.70
2022-12-08T06:30:58.917Z,0.70
2022-12-08T06:33:28.948Z,0.70
2022-12-08T06:36:06.264Z,0.70
2022-12-08T06:38:40.504Z,0.70
2022-12-08T06:41:13.971Z,0.80
2022-12-08T06:44:06.720Z,0.70
2022-12-08T06:46:34.712Z,0.70
2022-12-08T06:49:16.363Z,0.60
2022-12-08T06:53:45.734Z,0.60
2022-12-08T07:55:36.582Z,1.10
2022-12-08T08:01:03.236Z,1.10
2022-12-08T08:03:34.202Z,1.10
2022-12-08T08:06:07.979Z,1.10
2022-12-08T08:09:17.607Z,1.20
2022-12-08T08:12:22.357Z,1.20
2022-12-08T08:15:25.215Z,1.20
2022-12-08T08:27:37.862Z,1.30
2022-12-08T09:30:34.749Z,2.20
2022-12-08T09:33:25.941Z,2.40
2022-12-08T09:39:11.729Z,2.60
2022-12-08T09:42:05.247Z,2.50
2022-12-08T09:46:36.114Z,2.40
2022-12-08T09:48:17.596Z,2.20
2022-12-08T09:50:55.372Z,2.30
2022-12-08T09:53:59.992Z,2.90
2022-12-08T09:56:33.784Z,3.30
2022-12-08T10:02:41.780Z,4.00
2022-12-08T10:05:15.887Z,5.10
2022-12-08T10:07:54.712Z,5.50
2022-12-08T10:10:46.310Z,6.00
2022-12-08T10:13:26.435Z,5.60
2022-12-08T10:16:40.055Z,4.80
2022-12-08T10:22:27.713Z,4.30
2022-12-08T10:25:29.760Z,4.20
2022-12-08T10:28:13.970Z,4.10
2022-12-08T10:30:44.295Z,4.50
2022-12-08T10:33:46.796Z,4.70
2022-12-08T10:46:46.006Z,5.40
2022-12-08T10:49:39.407Z,4.60
2022-12-08T10:52:59.892Z,4.00
2022-12-08T10:55:31.169Z,3.50
2022-12-08T10:57:59.227Z,3.20
2022-12-08T11:00:28.431Z,3.00
2022-12-08T11:03:02.843Z,3.00
2022-12-08T11:05:37.743Z,3.30
2022-12-08T11:08:07.443Z,4.10
2022-12-08T11:10:38.443Z,4.70
2022-12-08T11:13:40.079Z,5.30
2022-12-08T11:16:17.180Z,5.90
2022-12-08T11:18:49.269Z,6.80
2022-12-08T11:21:26.933Z,7.30
2022-12-08T11:24:37.330Z,7.50
2022-12-08T11:27:36.887Z,7.90
2022-12-08T11:46:37.477Z,3.80
2022-12-08T11:49:29.491Z,3.30
2022-12-08T11:52:27.838Z,2.80
2022-12-08T11:55:49.962Z,2.90
2022-12-08T12:04:26.157Z,2.80
2022-12-08T12:07:32.141Z,2.80
2022-12-08T12:10:38.076Z,2.80
2022-12-08T12:13:15.872Z,3.00
2022-12-08T12:16:14.610Z,3.00
2022-12-08T12:19:02.842Z,2.80
2022-12-08T12:22:03.093Z,2.40
2022-12-08T12:24:39.974Z,2.30
2022-12-08T12:27:16.493Z,2.10
2022-12-08T12:29:56.122Z,1.90
2022-12-08T12:33:17.457Z,1.70
2022-12-08T12:35:51.475Z,1.50
2022-12-08T12:38:54.095Z,1.40
2022-12-08T12:44:30.792Z,1.10
2022-12-08T12:47:10.227Z,1.10
2022-12-08T12:49:51.162Z,0.90
2022-12-08T12:52:26.561Z,0.80
2022-12-08T12:57:54.103Z,0.80
2022-12-08T13:00:27.563Z,0.70
2022-12-08T13:02:58.532Z,0.70
2022-12-08T13:06:02.239Z,0.60
2022-12-08T13:08:37.427Z,0.60
2022-12-08T13:11:13.149Z,0.60
2022-12-08T13:14:09.200Z,0.50
2022-12-08T13:16:45.384Z,0.40
2022-12-08T13:19:18.134Z,0.30
2022-12-08T13:21:47.082Z,0.30
2022-12-08T13:24:34.701Z,0.20
2022-12-08T13:27:12.279Z,0.20
2022-12-08T13:29:40.648Z,0.10
2022-12-08T13:32:08.631Z,0.10
2022-12-08T13:34:59.908Z,0.10
2022-12-08T13:41:00.387Z,-0.10
2022-12-08T13:43:55.533Z,-0.10
2022-12-08T13:47:32.894Z,-0.10
2022-12-08T13:58:46.287Z,-0.40
2022-12-08T14:01:41.227Z,-0.40
2022-12-08T14:07:05.282Z,-0.50
2022-12-08T14:09:37.707Z,-0.60
2022-12-08T14:12:32.043Z,-0.60
2022-12-08T14:15:10.748Z,-0.60
2022-12-08T14:17:40.833Z,-0.60
2022-12-08T14:20:16.091Z,-0.60
2022-12-08T14:22:48.635Z,-0.50
2022-12-08T14:25:17.171Z,-0.50
2022-12-08T14:27:45.646Z,-0.50
2022-12-08T14:30:31.035Z,-0.60
2022-12-08T14:33:00.183Z,-0.60
2022-12-08T14:35:36.385Z,-0.60
2022-12-08T14:38:14.254Z,-0.60
2022-12-08T14:40:45.200Z,-0.60
2022-12-08T14:43:15.093Z,-0.60
2022-12-08T14:45:46.731Z,-0.60
2022-12-08T14:48:39.980Z,-0.60
2022-12-08T14:51:22.265Z,-0.60
2022-12-08T14:54:07.944Z,-0.60
2022-12-08T14:56:45.665Z,-0.60
2022-12-08T14:59:35.079Z,-0.70
2022-12-08T15:02:22.026Z,-0.80
2022-12-08T15:04:59.129Z,-0.90
2022-12-08T15:07:51.571Z,-0.80
2022-12-08T15:10:24.640Z,-0.90
2022-12-08T15:13:01.268Z,-0.90
2022-12-08T15:15:29.749Z,-1.00
2022-12-08T15:18:22.091Z,-1.00
2022-12-08T15:20:56.486Z,-0.90
2022-12-08T15:24:01.410Z,-0.90
2022-12-08T15:26:29.154Z,-0.90
2022-12-08T15:29:00.880Z,-0.90
2022-12-08T15:31:31.572Z,-1.00
2022-12-08T15:33:59.357Z,-1.10
2022-12-08T15:36:26.984Z,-1.10
2022-12-08T15:38:56.995Z,-1.10
2022-12-08T15:41:24.640Z,-1.10
2022-12-08T15:43:52.522Z,-1.20
2022-12-08T15:46:20.448Z,-1.10
2022-12-08T15:48:48.056Z,-1.10
2022-12-08T15:51:16.685Z,-1.00
2022-12-08T15:53:47.322Z,-1.00
2022-12-08T15:56:31.221Z,-1.10
2022-12-08T15:59:05.387Z,-1.00
2022-12-08T16:01:42.047Z,-1.00
2022-12-08T16:04:59.702Z,-0.90
2022-12-08T16:09:46.942Z,-0.80
2022-12-08T16:13:48.317Z,-0.80
2022-12-08T16:15:57.192Z,-0.80
2022-12-08T16:18:30.352Z,-0.80
2022-12-08T16:21:31.681Z,-0.70
2022-12-08T16:23:46.390Z,-0.70
2022-12-08T16:29:21.097Z,-0.70
2022-12-08T16:31:49.043Z,-0.70
2022-12-08T16:34:17.702Z,-0.70
2022-12-08T16:36:46.279Z,-0.60
2022-12-08T16:39:14.952Z,-0.60
2022-12-08T16:42:01.604Z,-0.60
2022-12-08T16:44:29.611Z,-0.60
2022-12-08T16:46:58.163Z,-0.60
2022-12-08T16:49:27.858Z,-0.50
2022-12-08T16:51:55.633Z,-0.50
2022-12-08T16:54:24.451Z,-0.50
2022-12-08T16:56:51.772Z,-0.40
2022-12-08T16:59:18.895Z,-0.40
2022-12-08T17:01:46.597Z,-0.40
2022-12-08T17:04:30.958Z,-0.40
2022-12-08T17:06:59.716Z,-0.30
2022-12-08T17:09:33.652Z,-0.20
2022-12-08T17:12:03.939Z,-0.20
2022-12-08T17:14:37.531Z,-0.20
2022-12-08T17:17:06.877Z,-0.20
2022-12-08T17:19:35.133Z,-0.10
2022-12-08T17:22:02.727Z,-0.10
2022-12-08T17:24:31.069Z,-0.10
2022-12-08T17:27:05.764Z,-0.10
2022-12-08T17:29:33.962Z,-0.10
2022-12-08T17:32:06.598Z,0.00
2022-12-08T17:34:35.023Z,0.00
2022-12-08T17:37:05.134Z,0.10
2022-12-08T17:39:33.976Z,0.10
2022-12-08T17:42:02.504Z,0.20
2022-12-08T17:44:32.080Z,0.20
2022-12-08T17:47:01.925Z,0.30
2022-12-08T17:49:40.463Z,0.40
2022-12-08T17:52:08.429Z,0.40
2022-12-08T17:54:37.442Z,0.50
2022-12-08T17:57:05.663Z,0.40
2022-12-08T17:59:37.813Z,0.40
2022-12-08T18:02:05.219Z,0.40
2022-12-08T18:04:41.040Z,0.40
2022-12-08T18:07:09.101Z,0.40
2022-12-08T18:09:38.634Z,0.40
2022-12-08T18:12:06.784Z,0.40
2022-12-08T18:14:38.136Z,0.40
2022-12-08T18:17:05.385Z,0.40
2022-12-08T18:19:33.161Z,0.30
2022-12-08T18:22:00.851Z,0.30
2022-12-08T18:24:28.255Z,0.30
2022-12-08T18:26:56.726Z,0.30
2022-12-08T18:29:24.903Z,0.30
2022-12-08T18:31:53.537Z,0.30
2022-12-08T18:34:22.342Z,0.20
2022-12-08T18:36:58.835Z,0.20
2022-12-08T18:39:29.377Z,0.20
2022-12-08T18:41:58.673Z,0.20
2022-12-08T18:44:28.138Z,0.20
2022-12-08T18:46:55.727Z,0.20
2022-12-08T18:49:24.249Z,0.20
2022-12-08T18:51:52.553Z,0.20
2022-12-08T18:54:31.595Z,0.20
2022-12-08T18:57:18.462Z,0.20
2022-12-08T18:59:47.363Z,0.20
2022-12-08T19:02:15.303Z,0.10
2022-12-08T19:04:44.684Z,0.10
2022-12-08T19:07:13.455Z,0.10
2022-12-08T19:09:45.692Z,0.10
2022-12-08T19:12:15.931Z,0.00
2022-12-08T19:14:45.370Z,0.00
2022-12-08T19:19:59.728Z,-0.10
2022-12-08T19:22:31.964Z,0.00
2022-12-08T19:25:01.258Z,0.00
2022-12-08T19:27:29.338Z,0.00
2022-12-08T19:32:45.596Z,-0.10
2022-12-08T19:35:16.206Z,0.00
2022-12-08T19:37:45.021Z,-0.10
2022-12-08T19:40:32.731Z,-0.10
2022-12-08T19:43:20.602Z,-0.10
2022-12-08T19:45:57.744Z,-0.10
2022-12-08T19:48:31.043Z,-0.10
2022-12-08T19:51:05.126Z,-0.20
2022-12-08T19:53:37.708Z,-0.10
2022-12-08T19:56:10.983Z,-0.20
2022-12-08T19:58:45.988Z,-0.40
2022-12-08T20:03:58.282Z,-0.30
2022-12-08T20:06:30.233Z,-0.30
2022-12-08T20:08:58.923Z,-0.30
2022-12-08T20:11:29.901Z,-0.40
2022-12-08T20:14:02.345Z,-0.40
2022-12-08T20:16:32.288Z,-0.40
2022-12-08T20:19:02.367Z,-0.40
2022-12-08T20:21:31.687Z,-0.40
2022-12-08T20:23:59.862Z,-0.40
2022-12-08T20:26:35.423Z,-0.50
2022-12-08T20:29:03.380Z,-0.50
2022-12-08T20:31:37.414Z,-0.50
2022-12-08T20:34:09.095Z,-0.50
2022-12-08T20:36:36.864Z,-0.50
2022-12-08T20:39:04.518Z,-0.60
2022-12-08T20:41:39.305Z,-0.60
2022-12-08T20:44:07.677Z,-0.50
2022-12-08T20:46:35.960Z,-0.50
2022-12-08T20:49:04.620Z,-0.50
2022-12-08T20:51:35.231Z,-0.60
2022-12-08T20:54:05.611Z,-0.60
2022-12-08T20:56:32.872Z,-0.60
2022-12-08T20:59:00.427Z,-0.60
2022-12-08T21:01:27.718Z,-0.60
2022-12-08T21:03:56.095Z,-0.60
2022-12-08T21:06:25.612Z,-0.60
2022-12-08T21:08:52.786Z,-0.60
2022-12-08T21:11:21.439Z,-0.60
2022-12-08T21:13:50.063Z,-0.50
2022-12-08T21:16:18.018Z,-0.50
2022-12-08T21:18:45.489Z,-0.60
2022-12-08T21:21:15.459Z,-0.60
2022-12-08T21:23:43.489Z,-0.60
2022-12-08T21:26:16.624Z,-0.60
2022-12-08T21:28:45.031Z,-0.60
2022-12-08T21:31:16.189Z,-0.70
2022-12-08T21:33:44.122Z,-0.70
2022-12-08T21:36:14.635Z,-0.70
2022-12-08T21:38:41.950Z,-0.70
2022-12-08T21:41:12.247Z,-0.60
2022-12-08T21:43:39.200Z,-0.80
2022-12-08T21:46:06.952Z,-0.70
2022-12-08T21:48:34.198Z,-0.70
2022-12-08T21:51:05.774Z,-0.70
2022-12-08T21:53:32.781Z,-0.80
2022-12-08T21:55:59.822Z,-0.70
2022-12-08T21:58:26.848Z,-0.70
2022-12-08T22:00:54.299Z,-0.70
2022-12-08T22:03:22.524Z,-0.80
2022-12-08T22:05:49.693Z,-0.80
2022-12-08T22:08:17.010Z,-0.80
2022-12-08T22:10:48.248Z,-0.80
2022-12-08T22:13:15.461Z,-0.80
2022-12-08T22:15:42.608Z,-0.80
2022-12-08T22:18:11.540Z,-0.80
2022-12-08T22:20:43.889Z,-0.70
2022-12-08T22:23:11.528Z,-0.70
2022-12-08T22:25:38.709Z,-0.80
2022-12-08T22:28:05.927Z,-0.80
2022-12-08T22:30:38.642Z,-0.80
2022-12-08T22:33:06.236Z,-0.80
2022-12-08T22:35:33.327Z,-0.80
2022-12-08T22:38:00.554Z,-0.90
2022-12-08T22:40:27.580Z,-0.80
2022-12-08T22:42:56.673Z,-0.90
2022-12-08T22:45:23.817Z,-0.90
2022-12-08T22:47:51.274Z,-0.90
2022-12-08T22:50:18.115Z,-0.80
2022-12-08T22:52:45.213Z,-0.80
2022-12-08T22:55:12.252Z,-0.80
2022-12-08T22:57:39.361Z,-0.80
2022-12-08T23:00:07.859Z,-0.80
2022-12-08T23:02:37.011Z,-0.80
2022-12-08T23:05:05.385Z,-0.80
2022-12-08T23:07:32.503Z,-0.90
2022-12-08T23:09:59.423Z,-0.90
2022-12-08T23:12:26.305Z,-0.80
2022-12-08T23:14:53.201Z,-0.80
2022-12-08T23:17:20.229Z,-0.80
2022-12-08T23:19:47.348Z,-0.80
2022-12-08T23:22:14.433Z,-0.80
2022-12-08T23:24:41.677Z,-0.80
2022-12-08T23:27:08.763Z,-0.80
2022-12-08T23:29:35.689Z,-0.70
2022-12-08T23:32:02.548Z,-0.70
2022-12-08T23:34:29.664Z,-0.70
2022-12-08T23:36:56.501Z,-0.90
2022-12-08T23:39:24.795Z,-0.80
2022-12-08T23:41:51.787Z,-0.90
2022-12-08T23:44:18.932Z,-0.90
2022-12-08T23:46:46.095Z,-0.90
2022-12-08T23:49:13.131Z,-0.90
2022-12-08T23:51:40.173Z,-1.00
2022-12-08T23:54:07.523Z,-0.90
2022-12-08T23:56:34.513Z,-0.90
2022-12-08T23:59:01.790Z,-0.80
